createdAt,value
2022-12-09T00:03:26.536Z,100040.41
2022-12-09T00:08:28.564Z,100047.31
2022-12-09T00:13:30.574Z,100042.81
2022-12-09T00:18:32.436Z,100037.50
2022-12-09T00:23:34.472Z,100035.72
2022-12-09T00:28:36.487Z,100034.00
2022-12-09T00:33:38.569Z,100040.41
2022-12-09T00:38:40.944Z,100044.91
2022-12-09T00:43:43.761Z,100037.75
2022-12-09T00:48:46.250Z,100035.94
2022-12-09T00:53:48.311Z,100035.09
2022-12-09T00:58:50.282Z,100036.19
2022-12-09T01:03:52.582Z,100035.94
2022-12-09T01:08:55.111Z,100036.91
2022-12-09T01:14:02.719Z,100026.44
2022-12-09T01:19:07.880Z,100038.53
2022-12-09T01:24:10.968Z,100034.38
2022-12-09T01:29:12.781Z,100037.09
2022-12-09T01:34:14.573Z,100033.53
2022-12-09T01:39:16.944Z,100041.41
2022-12-09T01:44:23.217Z,100037.88
2022-12-09T01:49:48.362Z,100030.66
2022-12-09T01:54:52.894Z,100031.97
2022-12-09T01:59:55.116Z,100030.13
2022-12-09T02:04:57.359Z,100023.66
2022-12-09T02:09:59.962Z,100015.63
2022-12-09T02:15:06.038Z,100020.06
2022-12-09T02:20:29.490Z,100017.81
2022-12-09T02:25:38.917Z,100013.41
2022-12-09T02:31:14.305Z,100013.53
2022-12-09T02:36:19.660Z,100006.91
2022-12-09T02:41:27.809Z,100003.50
2022-12-09T02:46:30.957Z,99998.38
2022-12-09T02:51:36.162Z,99998.97
2022-12-09T02:56:40.757Z,99995.56
2022-12-09T03:01:51.515Z,99994.69
2022-12-09T03:06:56.614Z,99996.44
2022-12-09T03:12:02.259Z,99992.06
2022-12-09T03:17:24.317Z,99988.38
2022-12-09T03:22:29.798Z,99987.97
2022-12-09T03:27:57.182Z,99985.13
2022-12-09T03:32:59.613Z,99980.69
2022-12-09T03:38:05.681Z,99976.19
2022-12-09T03:43:23.720Z,99968.09
2022-12-09T03:48:26.361Z,99970.97
2022-12-09T03:53:49.797Z,99966.63
2022-12-09T03:58:55.383Z,99969.25
2022-12-09T04:03:58.310Z,99968.31
2022-12-09T04:09:02.587Z,99965.66
2022-12-09T04:14:06.326Z,99963.81
2022-12-09T04:19:11.151Z,99963.91
2022-12-09T04:24:13.662Z,99969.03
2022-12-09T04:29:15.986Z,99959.47
2022-12-09T04:34:18.090Z,99963.03
2022-12-09T04:39:20.034Z,99961.25
2022-12-09T04:44:22.677Z,99953.31
2022-12-09T04:49:25.045Z,99955.97
2022-12-09T04:54:27.101Z,99954.09
2022-12-09T04:59:31.729Z,99957.41
2022-12-09T05:04:33.710Z,99958.69
2022-12-09T05:09:36.033Z,99948.34
2022-12-09T05:14:38.475Z,99945.28
2022-12-09T05:19:40.530Z,99947.78
2022-12-09T05:24:44.507Z,99946.16
2022-12-09T05:29:47.074Z,99946.47
2022-12-09T05:34:49.150Z,99944.69
2022-12-09T05:39:51.441Z,99940.94
2022-12-09T05:44:55.324Z,99933.78
2022-12-09T05:50:00.321Z,99934.56
2022-12-09T05:55:07.219Z,99930.41
2022-12-09T06:00:10.243Z,99931.44
2022-12-09T06:05:12.947Z,99934.09
2022-12-09T06:10:16.110Z,99933.13
2022-12-09T06:15:21.622Z,99924.28
2022-12-09T06:20:24.078Z,99920.78
2022-12-09T06:25:26.213Z,99935.88
2022-12-09T06:30:28.553Z,99923.50
2022-12-09T06:35:30.915Z,99921.72
2022-12-09T06:40:33.493Z,99930.66
2022-12-09T06:45:36.666Z,99927.78
2022-12-09T06:50:39.179Z,99917.19
2022-12-09T06:55:41.112Z,99929.75
2022-12-09T07:00:43.638Z,99934.09
2022-12-09T07:05:46.205Z,99943.91
2022-12-09T07:10:53.238Z,99945.63
2022-12-09T07:15:58.461Z,99949.78
2022-12-09T07:21:07.578Z,99951.84
2022-12-09T07:26:10.185Z,99957.19
2022-12-09T07:31:27.030Z,99958.22
2022-12-09T07:36:31.542Z,99956.22
2022-12-09T07:41:33.849Z,99960.78
2022-12-09T07:46:36.377Z,99971.38
2022-12-09T07:51:39.541Z,99971.91
2022-12-09T07:56:42.252Z,99976.50
2022-12-09T08:01:44.816Z,99973.84
2022-12-09T08:06:47.220Z,99971.06
2022-12-09T08:11:49.546Z,99976.41
2022-12-09T08:16:51.731Z,99982.50
2022-12-09T08:21:54.946Z,99977.44
2022-12-09T08:26:57.868Z,99982.88
2022-12-09T08:32:00.108Z,99979.13
2022-12-09T08:37:02.712Z,99972.41
2022-12-09T08:42:05.587Z,99972.06
2022-12-09T08:47:08.232Z,99978.22
2022-12-09T08:52:10.766Z,99973.78
2022-12-09T08:57:13.006Z,99968.47
2022-12-09T09:02:15.414Z,99975.88
2022-12-09T09:07:17.788Z,99984.53
2022-12-09T09:12:20.189Z,99981.88
2022-12-09T09:17:23.596Z,99991.72
2022-12-09T09:22:27.288Z,99995.75
2022-12-09T09:27:29.786Z,99995.28
2022-12-09T09:32:33.133Z,99995.38
2022-12-09T09:37:36.290Z,99996.63
2022-12-09T09:42:47.813Z,100000.44
2022-12-09T09:48:01.088Z,100002.91
2022-12-09T09:53:16.202Z,100001.19
2022-12-09T09:58:36.720Z,99997.09
2022-12-09T10:04:09.096Z,99994.03
2022-12-09T10:09:22.657Z,100001.66
2022-12-09T10:14:52.351Z,99995.19
2022-12-09T10:20:01.124Z,99979.84
2022-12-09T10:25:17.949Z,99981.22
2022-12-09T10:30:20.921Z,99980.31
2022-12-09T10:35:26.152Z,99982.41
2022-12-09T10:40:47.418Z,99977.94
2022-12-09T10:51:22.260Z,99971.41
2022-12-09T10:56:30.783Z,99970.28
2022-12-09T11:01:51.965Z,99971.84
2022-12-09T11:07:00.155Z,99966.50
2022-12-09T11:12:06.659Z,99965.13
2022-12-09T11:17:22.712Z,99964.34
2022-12-09T11:22:39.548Z,99958.06
2022-12-09T11:27:53.994Z,99961.31
2022-12-09T11:32:56.993Z,99952.97
2022-12-09T11:38:04.031Z,99948.75
2022-12-09T11:43:05.870Z,99954.84
2022-12-09T11:48:35.037Z,99942.56
2022-12-09T11:53:42.457Z,99934.03
2022-12-09T11:59:00.575Z,99944.91
2022-12-09T12:04:09.974Z,99946.63
2022-12-09T12:09:26.697Z,99939.69
2022-12-09T12:14:30.818Z,99939.06
2022-12-09T12:19:35.666Z,99945.84
2022-12-09T12:25:02.658Z,99930.25
2022-12-09T12:30:20.822Z,99927.53
2022-12-09T12:35:25.470Z,99916.16
2022-12-09T12:40:45.714Z,99917.50
2022-12-09T12:46:16.232Z,99918.91
2022-12-09T12:51:28.781Z,99915.06
2022-12-09T12:57:06.468Z,99915.88
2022-12-09T13:02:48.238Z,99913.00
2022-12-09T13:07:56.394Z,99906.66
2022-12-09T13:13:01.849Z,99908.78
2022-12-09T13:18:07.515Z,99910.50
2022-12-09T13:23:46.533Z,99906.75
2022-12-09T13:29:02.854Z,99910.09
2022-12-09T13:34:14.133Z,99909.31
2022-12-09T13:39:40.691Z,99903.69
2022-12-09T13:44:42.738Z,99904.47
2022-12-09T13:49:56.065Z,99906.25
2022-12-09T13:54:58.431Z,99908.09
2022-12-09T14:00:05.872Z,99901.28
2022-12-09T14:05:26.302Z,99906.09
2022-12-09T14:10:47.852Z,99904.81
2022-12-09T14:16:27.723Z,99915.88
2022-12-09T14:21:31.668Z,99927.06
2022-12-09T14:26:53.710Z,99932.66
2022-12-09T14:32:03.309Z,99931.44
2022-12-09T14:37:19.593Z,99931.34
2022-12-09T14:42:59.944Z,99933.38
2022-12-09T14:48:08.514Z,99933.31
2022-12-09T14:53:21.883Z,99941.06
2022-12-09T14:58:26.331Z,99937.41
2022-12-09T15:03:35.441Z,99953.19
2022-12-09T15:08:42.972Z,99958.50
2022-12-09T15:13:48.293Z,99957.72
2022-12-09T15:18:51.738Z,99973.75
2022-12-09T15:23:53.902Z,99972.75
2022-12-09T15:28:56.861Z,99973.66
2022-12-09T15:34:00.661Z,99973.75
2022-12-09T15:39:03.981Z,99979.97
2022-12-09T15:44:13.828Z,99977.97
2022-12-09T15:49:21.394Z,99969.91
2022-12-09T15:54:29.734Z,99980.81
2022-12-09T15:59:35.766Z,99972.28
2022-12-09T16:04:45.150Z,99966.50
2022-12-09T16:10:05.892Z,99978.47
2022-12-09T16:15:11.771Z,99974.22
2022-12-09T16:20:31.670Z,99967.13
2022-12-09T16:25:47.066Z,99968.00
2022-12-09T16:30:51.013Z,99961.72
2022-12-09T16:36:07.442Z,99969.56
2022-12-09T16:41:12.432Z,99970.34
2022-12-09T16:46:36.325Z,99970.81
2022-12-09T16:51:39.263Z,99973.06
2022-12-09T16:56:40.981Z,99973.06
2022-12-09T17:01:43.173Z,99981.22
2022-12-09T17:06:45.683Z,99988.94
2022-12-09T17:11:49.356Z,99998.75
2022-12-09T17:16:51.483Z,99986.16
2022-12-09T17:21:53.303Z,99992.47
2022-12-09T17:26:55.321Z,99992.53
2022-12-09T17:31:57.318Z,100004.97
2022-12-09T17:36:59.893Z,100002.72
2022-12-09T17:42:01.900Z,100002.09
2022-12-09T17:47:04.300Z,100013.91
2022-12-09T17:52:06.499Z,100012.63
2022-12-09T17:57:08.603Z,100022.50
2022-12-09T18:02:11.509Z,100027.00
2022-12-09T18:07:13.402Z,100024.03
2022-12-09T18:12:15.294Z,100028.38
2022-12-09T18:17:17.243Z,100034.88
2022-12-09T18:22:19.189Z,100037.56
2022-12-09T18:27:21.125Z,100048.16
2022-12-09T18:32:23.518Z,100041.00
2022-12-09T18:37:26.985Z,100048.28
2022-12-09T18:42:28.926Z,100048.09
2022-12-09T18:47:30.735Z,100055.19
2022-12-09T18:52:32.513Z,100058.28
2022-12-09T18:57:34.330Z,100058.44
2022-12-09T19:02:36.271Z,100065.38
2022-12-09T19:07:38.358Z,100067.22
2022-12-09T19:12:50.586Z,100068.97
2022-12-09T19:17:55.809Z,100063.72
2022-12-09T19:22:57.976Z,100066.56
2022-12-09T19:27:59.817Z,100079.06
2022-12-09T19:33:01.832Z,100083.34
2022-12-09T19:38:03.831Z,100088.63
2022-12-09T19:43:05.830Z,100085.69
2022-12-09T19:48:07.654Z,100077.03
2022-12-09T19:53:09.780Z,100081.41
2022-12-09T19:58:11.641Z,100088.31
2022-12-09T20:03:13.878Z,100083.81
2022-12-09T20:08:15.827Z,100078.66
2022-12-09T20:13:17.842Z,100083.34
2022-12-09T20:18:19.887Z,100088.16
2022-12-09T20:23:21.714Z,100084.06
2022-12-09T20:28:23.535Z,100094.13
2022-12-09T20:33:25.505Z,100098.75
2022-12-09T20:38:27.699Z,100097.00
2022-12-09T20:43:31.101Z,100104.66
2022-12-09T20:48:33.069Z,100105.28
2022-12-09T20:53:36.291Z,100107.75
2022-12-09T20:58:39.652Z,100110.84
2022-12-09T21:03:42.595Z,100109.25
2022-12-09T21:08:45.132Z,100108.47
2022-12-09T21:13:50.476Z,100109.97
2022-12-09T21:18:54.427Z,100113.06
2022-12-09T21:23:56.668Z,100108.88
2022-12-09T21:29:00.629Z,100114.50
2022-12-09T21:34:05.042Z,100123.09
2022-12-09T21:39:07.697Z,100118.97
2022-12-09T21:44:14.790Z,100114.63
2022-12-09T21:49:16.682Z,100111.00
2022-12-09T21:54:18.620Z,100127.41
2022-12-09T21:59:21.093Z,100126.00
2022-12-09T22:04:22.861Z,100122.25
2022-12-09T22:09:24.887Z,100125.84
2022-12-09T22:14:27.122Z,100134.31
2022-12-09T22:19:29.264Z,100133.47
2022-12-09T22:24:31.121Z,100137.03
2022-12-09T22:29:32.942Z,100143.34
2022-12-09T22:34:34.781Z,100142.38
2022-12-09T22:39:36.958Z,100152.75
2022-12-09T22:44:39.371Z,100142.25
2022-12-09T22:49:41.422Z,100139.44
2022-12-09T22:54:43.423Z,100144.41
2022-12-09T22:59:45.356Z,100148.22
2022-12-09T23:04:47.300Z,100148.41
2022-12-09T23:09:49.309Z,100156.88
2022-12-09T23:14:51.309Z,100151.38
2022-12-09T23:19:53.431Z,100156.63
2022-12-09T23:24:55.219Z,100160.06
2022-12-09T23:29:57.228Z,100156.81
2022-12-09T23:35:03.075Z,100163.81
2022-12-09T23:40:08.725Z,100169.09
2022-12-09T23:45:10.958Z,100176.00
2022-12-09T23:50:12.953Z,100177.72
2022-12-09T23:55:15.006Z,100173.84
